Time;durP1;ratioP1;P1;durP2;ratioP2;P2;SDS_P1;SDS_P2;PMS_P1;PMS_P2;Temp;Humidity;BMP_temperature;BMP_pressure;BME280_temperature;BME280_humidity;BME280_pressure;Samples;Min_cycle;Max_cycle;Signal;HPM_P1;HPM_P2
2022/12/30 00:02:23;;;;;;;8.93;2.20;;;7.50;99.90;;;;;;5014558;28;20229;-68
2022/12/30 00:04:50;;;;;;;8.17;2.63;;;7.50;99.90;;;;;;5023317;28;20572;-69
2022/12/30 00:07:18;;;;;;;9.37;2.27;;;7.50;99.90;;;;;;5014620;28;20644;-69
2022/12/30 00:09:45;;;;;;;14.23;2.83;;;7.50;99.90;;;;;;5020510;28;20840;-68
2022/12/30 00:34:18;;;;;;;5.97;2.40;;;7.60;99.90;;;;;;5021129;28;20302;-68
2022/12/30 00:36:46;;;;;;;7.43;2.40;;;7.60;99.90;;;;;;5014288;28;20202;-68
2022/12/30 00:39:13;;;;;;;9.47;2.37;;;7.60;99.90;;;;;;5008500;28;20202;-68
2022/12/30 00:44:24;;;;;;;11.03;2.47;;;7.60;99.90;;;;;;5019899;28;20248;-68
2022/12/30 00:46:52;;;;;;;13.10;2.77;;;7.60;99.90;;;;;;5009808;28;20935;-69
2022/12/30 00:57:34;;;;;;;6.27;1.97;;;7.60;99.90;;;;;;5014036;28;20251;-68
2022/12/30 01:00:01;;;;;;;9.67;2.90;;;7.70;99.90;;;;;;5029152;28;20201;-68
2022/12/30 01:02:28;;;;;;;10.57;2.70;;;7.70;99.90;;;;;;5029263;28;20213;-68
2022/12/30 01:04:56;;;;;;;8.93;3.00;;;7.70;99.90;;;;;;4990887;28;20221;-68
2022/12/30 01:07:23;;;;;;;10.33;2.33;;;7.70;99.90;;;;;;5023693;28;20226;-68
2022/12/30 01:09:49;;;;;;;14.80;2.83;;;7.70;99.90;;;;;;5015807;28;20846;-68
2022/12/30 01:12:16;;;;;;;9.00;2.50;;;7.60;99.90;;;;;;5010867;28;21062;-68
2022/12/30 01:14:46;;;;;;;12.87;3.17;;;7.60;99.90;;;;;;5024276;28;20210;-68
2022/12/30 01:17:15;;;;;;;15.53;2.63;;;7.50;99.90;;;;;;5019035;28;20955;-68
2022/12/30 01:19:42;;;;;;;14.03;2.80;;;7.50;99.90;;;;;;4993097;28;20240;-68
2022/12/30 01:22:11;;;;;;;10.50;2.13;;;7.50;99.90;;;;;;5011388;28;20225;-68
2022/12/30 01:24:38;;;;;;;14.00;3.03;;;7.50;99.90;;;;;;5005274;28;20244;-69
2022/12/30 01:27:05;;;;;;;12.80;2.40;;;7.50;99.90;;;;;;5021931;28;20254;-69
2022/12/30 01:29:34;;;;;;;14.77;3.03;;;7.50;99.90;;;;;;5008836;28;20223;-68
2022/12/30 01:32:01;;;;;;;8.90;2.43;;;7.50;99.90;;;;;;5021683;28;20201;-68
2022/12/30 01:34:28;;;;;;;12.50;2.87;;;7.50;99.90;;;;;;4987238;28;21912;-69
2022/12/30 01:36:55;;;;;;;9.70;2.73;;;7.50;99.90;;;;;;5014702;28;20225;-68
2022/12/30 01:39:23;;;;;;;9.93;2.70;;;7.50;99.90;;;;;;5005493;28;20678;-68
2022/12/30 01:41:50;;;;;;;10.83;2.73;;;7.40;99.90;;;;;;5025605;28;20213;-68
2022/12/30 01:44:53;;;;;;;10.17;2.20;;;7.40;99.90;;;;;;5003518;28;20229;-68
2022/12/30 01:47:23;;;;;;;9.30;2.63;;;7.40;99.90;;;;;;5023613;28;20205;-68
2022/12/30 01:49:54;;;;;;;10.83;2.57;;;7.40;99.90;;;;;;5027087;28;20668;-68
2022/12/30 01:52:24;;;;;;;9.60;2.00;;;7.40;99.90;;;;;;4981836;28;20210;-68
2022/12/30 01:54:57;;;;;;;11.37;3.00;;;7.40;99.90;;;;;;5021487;28;20912;-68
2022/12/30 01:57:25;;;;;;;9.83;2.20;;;7.30;99.90;;;;;;5012981;28;20239;-68
2022/12/30 01:59:52;;;;;;;6.70;2.03;;;7.20;99.90;;;;;;4999915;28;20209;-68
2022/12/30 02:02:19;;;;;;;10.53;2.53;;;7.30;99.90;;;;;;5022647;28;20226;-68
2022/12/30 02:04:46;;;;;;;9.60;2.53;;;7.20;99.90;;;;;;5026330;28;20230;-68
2022/12/30 02:07:19;;;;;;;8.03;3.17;;;7.20;99.90;;;;;;4986266;28;21268;-69
2022/12/30 02:09:47;;;;;;;11.93;2.50;;;7.10;99.90;;;;;;5019648;28;20232;-68
2022/12/30 02:12:15;;;;;;;11.50;2.90;;;7.10;99.90;;;;;;5017174;28;20208;-68
2022/12/30 02:14:43;;;;;;;12.00;3.00;;;7.10;99.90;;;;;;5012162;28;20201;-68
2022/12/30 02:17:19;;;;;;;11.57;3.03;;;7.20;99.90;;;;;;5015919;28;20202;-68
2022/12/30 02:20:52;;;;;;;8.03;2.20;;;7.10;99.90;;;;;;5021971;28;20197;-69
2022/12/30 02:23:44;;;;;;;11.10;2.47;;;7.10;99.90;;;;;;4912864;28;20367;-68
2022/12/30 02:26:46;;;;;;;10.13;2.60;;;7.10;99.90;;;;;;5015303;28;20221;-68
2022/12/30 02:29:58;;;;;;;7.40;1.93;;;7.00;99.90;;;;;;5021400;28;20680;-69
2022/12/30 02:32:31;;;;;;;8.73;2.13;;;7.00;99.90;;;;;;4954672;28;20208;-68
2022/12/30 02:35:07;;;;;;;20.53;3.00;;;7.00;99.90;;;;;;5021544;28;20236;-68
2022/12/30 02:37:42;;;;;;;9.80;2.37;;;7.00;99.90;;;;;;5020073;28;20608;-68
2022/12/30 02:40:15;;;;;;;8.97;2.87;;;7.10;99.90;;;;;;4989305;28;20217;-68
2022/12/30 02:45:35;;;;;;;16.03;2.70;;;7.00;99.90;;;;;;5001824;28;20232;-68
2022/12/30 02:48:08;;;;;;;10.07;2.83;;;7.00;99.90;;;;;;5013724;28;20571;-68
2022/12/30 02:53:28;;;;;;;10.83;2.63;;;6.80;99.90;;;;;;4991198;28;20260;-68
2022/12/30 02:55:56;;;;;;;10.63;2.73;;;6.90;99.90;;;;;;5014329;28;20764;-68
2022/12/30 02:58:26;;;;;;;9.63;2.90;;;6.90;99.90;;;;;;5003788;28;20294;-68
2022/12/30 03:04:04;;;;;;;8.30;3.03;;;6.90;99.90;;;;;;5020722;28;20259;-68
2022/12/30 03:07:03;;;;;;;11.83;2.47;;;6.90;99.90;;;;;;5018960;28;20198;-68
2022/12/30 03:12:40;;;;;;;11.73;3.27;;;6.80;99.90;;;;;;5010163;28;20208;-68
2022/12/30 03:15:11;;;;;;;14.77;2.63;;;6.80;99.90;;;;;;4990109;28;20213;-67
2022/12/30 03:17:40;;;;;;;9.43;2.37;;;6.80;99.90;;;;;;5005837;28;20974;-68
2022/12/30 03:20:13;;;;;;;13.23;2.67;;;6.80;99.90;;;;;;5012193;28;20204;-68
2022/12/30 03:28:14;;;;;;;15.30;2.97;;;6.80;99.90;;;;;;5008086;28;20240;-68
2022/12/30 03:30:46;;;;;;;13.33;3.10;;;6.80;99.90;;;;;;5006104;28;20210;-68
2022/12/30 03:33:14;;;;;;;12.10;2.60;;;6.70;99.90;;;;;;5001466;28;20244;-68
2022/12/30 03:35:48;;;;;;;14.57;3.00;;;6.60;99.90;;;;;;5018576;28;20216;-68
2022/12/30 03:38:18;;;;;;;11.60;3.20;;;6.70;99.90;;;;;;5017530;28;20606;-68
2022/12/30 03:40:46;;;;;;;7.47;2.47;;;6.70;99.90;;;;;;4982993;28;20898;-68
2022/12/30 03:43:14;;;;;;;7.37;2.80;;;6.70;99.90;;;;;;5015120;28;20201;-68
2022/12/30 03:45:41;;;;;;;9.30;2.47;;;6.60;99.90;;;;;;5012762;28;20885;-69
2022/12/30 03:48:08;;;;;;;6.27;1.90;;;6.60;99.90;;;;;;5015884;28;20223;-68
2022/12/30 03:50:35;;;;;;;11.97;2.23;;;6.60;99.90;;;;;;5024291;28;20501;-69
2022/12/30 03:53:03;;;;;;;8.73;2.03;;;6.50;99.90;;;;;;5031252;28;20556;-68
2022/12/30 03:55:30;;;;;;;9.20;2.17;;;6.60;99.90;;;;;;4992536;28;20446;-69
2022/12/30 03:57:57;;;;;;;6.40;2.27;;;6.60;99.90;;;;;;5014671;28;20663;-68
2022/12/30 04:00:23;;;;;;;10.40;2.43;;;6.50;99.90;;;;;;5006645;28;20892;-68
2022/12/30 04:02:50;;;;;;;14.77;2.50;;;6.50;99.90;;;;;;5011888;28;20206;-68
2022/12/30 04:05:17;;;;;;;13.93;2.30;;;6.50;99.90;;;;;;5024517;28;20224;-68
2022/12/30 04:07:44;;;;;;;11.50;2.47;;;6.50;99.90;;;;;;5027720;28;20197;-68
2022/12/30 04:10:12;;;;;;;13.97;2.97;;;6.50;99.90;;;;;;5032888;28;20236;-68
2022/12/30 04:12:39;;;;;;;10.70;2.20;;;6.50;99.90;;;;;;4979852;28;20317;-68
2022/12/30 04:15:07;;;;;;;9.67;2.97;;;6.50;99.90;;;;;;5018594;28;20224;-67
2022/12/30 04:17:34;;;;;;;12.73;3.03;;;6.40;99.90;;;;;;5014920;28;20252;-68
2022/12/30 04:20:01;;;;;;;12.07;2.73;;;6.50;99.90;;;;;;5014714;28;20402;-68
2022/12/30 04:22:28;;;;;;;13.13;3.43;;;6.40;99.90;;;;;;5021327;28;20198;-68
2022/12/30 04:24:55;;;;;;;7.60;3.13;;;6.40;99.90;;;;;;5029204;28;20233;-68
2022/12/30 04:27:23;;;;;;;8.40;2.70;;;6.40;99.90;;;;;;4993227;28;20219;-68
2022/12/30 04:29:50;;;;;;;8.67;2.70;;;6.40;99.90;;;;;;5017734;28;20206;-68
2022/12/30 04:32:16;;;;;;;8.37;2.80;;;6.40;99.90;;;;;;5021490;28;20193;-68
2022/12/30 04:34:43;;;;;;;12.67;2.53;;;6.40;99.90;;;;;;5006839;28;20683;-68
2022/12/30 04:37:10;;;;;;;10.87;2.77;;;6.30;99.90;;;;;;5028661;28;20201;-68
2022/12/30 04:39:37;;;;;;;13.43;3.40;;;6.30;99.90;;;;;;5026406;28;20591;-68
2022/12/30 04:42:04;;;;;;;8.33;2.43;;;6.40;99.90;;;;;;4997439;28;20205;-68
2022/12/30 04:44:32;;;;;;;10.70;2.60;;;6.30;99.90;;;;;;5014353;28;20228;-68
2022/12/30 04:46:59;;;;;;;8.73;2.87;;;6.30;99.90;;;;;;5028138;28;21100;-68
2022/12/30 04:49:26;;;;;;;9.13;2.97;;;6.30;99.90;;;;;;5021231;28;20744;-68
2022/12/30 04:51:52;;;;;;;10.43;3.10;;;6.30;99.90;;;;;;5005093;28;20216;-68
2022/12/30 04:54:19;;;;;;;9.27;2.73;;;6.20;99.90;;;;;;5032125;28;20707;-68
2022/12/30 04:56:46;;;;;;;6.13;2.43;;;6.20;99.90;;;;;;5016700;28;20546;-69
2022/12/30 04:59:13;;;;;;;12.60;2.93;;;6.20;99.90;;;;;;4992952;28;20221;-68
2022/12/30 05:01:41;;;;;;;6.50;2.30;;;6.20;99.90;;;;;;5012087;28;20561;-68
2022/12/30 05:04:08;;;;;;;7.03;2.60;;;6.20;99.90;;;;;;5013043;28;20238;-68
2022/12/30 05:06:35;;;;;;;11.13;3.30;;;6.10;99.90;;;;;;5007705;28;20227;-68
2022/12/30 05:09:01;;;;;;;9.70;2.87;;;6.20;99.90;;;;;;5024099;28;20430;-68
2022/12/30 05:11:28;;;;;;;14.20;2.93;;;6.20;99.90;;;;;;5029632;28;20205;-68
2022/12/30 05:13:55;;;;;;;9.93;2.70;;;6.10;99.90;;;;;;4988756;28;20618;-68
2022/12/30 05:16:22;;;;;;;10.10;2.80;;;6.20;99.90;;;;;;5017485;28;20226;-68
2022/12/30 05:18:50;;;;;;;12.90;3.17;;;6.10;99.90;;;;;;5006354;28;20867;-68
2022/12/30 05:21:17;;;;;;;10.57;2.87;;;6.10;99.90;;;;;;4989090;28;20213;-69
2022/12/30 05:26:27;;;;;;;13.13;3.23;;;6.10;99.90;;;;;;5004658;28;20508;-68
2022/12/30 05:28:54;;;;;;;10.30;3.00;;;6.00;99.90;;;;;;4985011;28;20629;-68
2022/12/30 05:31:21;;;;;;;8.83;3.00;;;6.00;99.90;;;;;;5004841;28;20209;-68
2022/12/30 05:33:49;;;;;;;5.83;2.90;;;6.00;99.90;;;;;;5023979;28;20196;-68
2022/12/30 05:36:16;;;;;;;11.27;2.60;;;6.00;99.90;;;;;;5002725;28;20614;-68
2022/12/30 05:38:43;;;;;;;7.63;2.77;;;6.10;99.90;;;;;;5004644;28;20206;-68
2022/12/30 05:41:11;;;;;;;6.73;2.40;;;6.00;99.90;;;;;;5019086;28;20721;-68
2022/12/30 05:43:38;;;;;;;11.77;3.13;;;6.10;99.90;;;;;;4971132;28;20218;-68
2022/12/30 05:46:05;;;;;;;13.83;3.50;;;6.00;99.90;;;;;;5007548;28;20852;-68
2022/12/30 05:48:32;;;;;;;6.93;2.60;;;6.00;99.90;;;;;;4991927;28;20208;-68
2022/12/30 05:51:00;;;;;;;9.63;2.67;;;6.00;99.90;;;;;;5008693;28;20229;-68
2022/12/30 05:53:27;;;;;;;11.80;2.63;;;6.00;99.90;;;;;;5004001;28;20606;-68
2022/12/30 05:55:53;;;;;;;10.03;2.20;;;6.00;99.90;;;;;;5022595;28;20216;-68
2022/12/30 05:58:20;;;;;;;10.07;2.93;;;6.00;99.90;;;;;;5012803;28;20206;-68
2022/12/30 06:00:47;;;;;;;8.63;2.83;;;6.00;99.90;;;;;;4990953;28;20658;-68
2022/12/30 06:03:14;;;;;;;9.30;2.60;;;6.00;99.90;;;;;;5013329;28;20248;-68
2022/12/30 06:05:42;;;;;;;8.87;2.50;;;6.00;99.90;;;;;;5000344;28;20237;-68
2022/12/30 06:08:10;;;;;;;8.97;2.50;;;5.90;99.90;;;;;;5019877;28;20229;-69
2022/12/30 06:10:37;;;;;;;8.73;2.73;;;6.00;99.90;;;;;;5006026;28;20460;-68
2022/12/30 06:13:04;;;;;;;8.53;2.97;;;5.90;99.90;;;;;;5020541;28;20834;-68
2022/12/30 06:15:31;;;;;;;8.63;2.73;;;5.90;99.90;;;;;;4970625;28;20224;-68
2022/12/30 06:17:57;;;;;;;6.20;2.33;;;5.90;99.90;;;;;;5013400;28;20322;-69
2022/12/30 06:20:24;;;;;;;7.27;2.80;;;5.90;99.90;;;;;;5021492;28;20224;-68
2022/12/30 06:22:51;;;;;;;9.07;2.67;;;5.90;99.90;;;;;;5000769;28;20671;-68
2022/12/30 06:25:19;;;;;;;8.70;3.20;;;5.90;99.90;;;;;;5009968;28;20932;-68
2022/12/30 06:27:46;;;;;;;8.47;2.93;;;5.90;99.90;;;;;;5021458;28;20218;-68
2022/12/30 06:30:14;;;;;;;7.67;2.63;;;5.90;99.90;;;;;;5005922;28;20229;-68
2022/12/30 06:32:40;;;;;;;9.13;3.30;;;5.90;99.90;;;;;;4984258;28;20231;-68
2022/12/30 06:35:08;;;;;;;4.60;2.43;;;5.90;99.90;;;;;;5016190;28;20234;-68
2022/12/30 06:37:35;;;;;;;8.77;2.87;;;5.90;99.90;;;;;;4991405;28;20213;-68
2022/12/30 06:40:01;;;;;;;9.50;3.17;;;5.90;99.90;;;;;;5006660;28;20593;-68
2022/12/30 06:42:30;;;;;;;8.97;3.07;;;5.90;99.90;;;;;;5020676;28;20201;-68
2022/12/30 06:44:56;;;;;;;10.77;3.50;;;5.80;99.90;;;;;;5009425;28;20640;-68
2022/12/30 06:47:23;;;;;;;6.80;3.27;;;5.80;99.90;;;;;;4988056;28;20290;-68
2022/12/30 06:49:50;;;;;;;9.60;2.37;;;5.90;99.90;;;;;;5008260;28;20226;-68
2022/12/30 06:52:17;;;;;;;6.77;2.90;;;5.80;99.90;;;;;;5000586;28;20749;-68
2022/12/30 06:54:44;;;;;;;12.37;3.23;;;5.80;99.90;;;;;;5013385;28;20228;-68
2022/12/30 06:57:10;;;;;;;5.30;2.20;;;5.80;99.90;;;;;;5005990;28;20221;-68
2022/12/30 06:59:38;;;;;;;10.53;3.10;;;5.80;99.90;;;;;;5017846;28;20220;-68
2022/12/30 07:02:06;;;;;;;11.73;3.43;;;5.70;99.90;;;;;;4971894;28;20433;-68
2022/12/30 07:04:33;;;;;;;10.53;2.57;;;5.80;99.90;;;;;;5009338;28;20471;-69
2022/12/30 07:06:59;;;;;;;9.80;3.37;;;5.90;99.90;;;;;;5001857;28;20228;-68
2022/12/30 07:09:26;;;;;;;11.83;3.00;;;5.90;99.90;;;;;;4997705;28;20205;-68
2022/12/30 07:11:53;;;;;;;14.23;2.70;;;5.90;99.90;;;;;;4982144;28;20217;-68
2022/12/30 07:14:20;;;;;;;6.20;2.77;;;5.90;99.90;;;;;;5016830;28;20201;-68
2022/12/30 07:16:48;;;;;;;12.53;2.80;;;5.80;99.90;;;;;;4994863;28;20201;-68
2022/12/30 07:19:15;;;;;;;8.93;2.43;;;5.80;99.90;;;;;;4986175;28;20554;-68
2022/12/30 07:21:42;;;;;;;13.10;2.50;;;5.80;99.90;;;;;;5003221;28;20583;-68
2022/12/30 07:24:09;;;;;;;15.80;3.20;;;5.80;99.90;;;;;;5005754;28;20211;-68
2022/12/30 07:26:36;;;;;;;9.07;4.17;;;5.80;99.90;;;;;;4997284;28;20591;-68
2022/12/30 07:29:03;;;;;;;13.27;2.70;;;5.80;99.90;;;;;;5014706;28;20229;-68
2022/12/30 07:31:30;;;;;;;17.70;2.43;;;5.80;99.90;;;;;;5006106;28;20205;-68
2022/12/30 07:33:58;;;;;;;10.40;2.90;;;5.70;99.90;;;;;;4986936;28;20236;-68
2022/12/30 07:36:25;;;;;;;6.20;2.27;;;5.70;99.90;;;;;;5000429;28;20213;-68
2022/12/30 07:38:52;;;;;;;7.77;2.07;;;5.70;99.90;;;;;;5004066;28;20608;-68
2022/12/30 07:41:19;;;;;;;10.73;2.30;;;5.70;99.90;;;;;;5022345;28;20201;-68
2022/12/30 07:43:46;;;;;;;16.47;2.57;;;5.80;99.90;;;;;;4989517;28;20204;-68
2022/12/30 07:46:13;;;;;;;8.53;2.37;;;5.80;99.90;;;;;;5005994;28;20238;-68
2022/12/30 07:48:40;;;;;;;13.70;2.57;;;5.70;99.90;;;;;;4987484;28;20220;-68
2022/12/30 07:51:09;;;;;;;8.47;2.13;;;5.70;99.90;;;;;;5015146;28;20224;-68
2022/12/30 07:53:37;;;;;;;10.50;2.20;;;5.70;99.90;;;;;;4999525;28;20221;-68
2022/12/30 07:56:05;;;;;;;13.93;2.50;;;5.60;99.90;;;;;;5010411;28;20210;-68
2022/12/30 07:58:32;;;;;;;8.73;2.43;;;5.60;99.90;;;;;;4993940;28;20754;-68
2022/12/30 08:01:03;;;;;;;4.87;2.10;;;5.60;99.90;;;;;;4998812;28;23067;-68
2022/12/30 08:03:30;;;;;;;7.67;2.43;;;5.70;99.90;;;;;;5001079;28;21064;-69
2022/12/30 08:05:57;;;;;;;12.77;2.40;;;5.70;99.90;;;;;;5001001;28;20461;-69
2022/12/30 08:08:27;;;;;;;8.50;2.17;;;5.70;99.90;;;;;;5022159;23;20225;-68
2022/12/30 08:10:55;;;;;;;7.53;1.90;;;5.70;99.90;;;;;;4977694;28;20758;-69
2022/12/30 08:13:23;;;;;;;10.93;2.27;;;5.80;99.90;;;;;;4984905;28;20235;-69
2022/12/30 08:15:50;;;;;;;14.03;1.97;;;5.60;99.90;;;;;;5006704;28;20995;-68
2022/12/30 08:18:17;;;;;;;9.47;2.10;;;5.70;99.90;;;;;;5006493;28;20228;-69
2022/12/30 08:20:43;;;;;;;13.20;2.80;;;5.80;99.90;;;;;;4990377;28;20205;-69
2022/12/30 08:23:10;;;;;;;5.07;2.00;;;5.70;99.90;;;;;;5000811;28;20225;-68
2022/12/30 08:25:39;;;;;;;5.83;1.83;;;5.80;99.90;;;;;;5001702;28;20355;-69
2022/12/30 08:28:06;;;;;;;7.13;2.00;;;5.80;99.90;;;;;;4990219;28;20208;-69
2022/12/30 08:30:33;;;;;;;10.73;2.83;;;5.80;99.90;;;;;;5007031;28;20331;-69
2022/12/30 08:33:00;;;;;;;9.40;2.37;;;5.80;99.90;;;;;;5013091;28;20201;-69
2022/12/30 08:35:27;;;;;;;6.60;2.30;;;5.80;99.90;;;;;;5001186;28;20248;-68
2022/12/30 08:37:53;;;;;;;10.90;2.40;;;5.80;99.90;;;;;;5002710;28;20997;-68
2022/12/30 08:40:20;;;;;;;11.97;3.13;;;5.90;99.90;;;;;;5011721;28;20226;-68
2022/12/30 08:42:49;;;;;;;10.23;2.60;;;5.90;99.90;;;;;;5006360;28;20973;-68
2022/12/30 08:45:15;;;;;;;10.63;2.00;;;5.90;99.90;;;;;;4997004;28;20244;-68
2022/12/30 08:47:42;;;;;;;4.97;2.20;;;5.90;99.90;;;;;;5006764;28;20224;-69
2022/12/30 08:50:09;;;;;;;6.07;2.50;;;5.90;99.90;;;;;;4998806;28;20229;-67
2022/12/30 08:52:37;;;;;;;13.00;3.10;;;6.00;99.90;;;;;;4967900;28;21855;-67
2022/12/30 08:55:05;;;;;;;8.83;2.47;;;6.00;99.90;;;;;;4981427;28;21372;-67
2022/12/30 08:57:32;;;;;;;9.77;2.57;;;6.00;99.90;;;;;;5011968;28;20686;-68
2022/12/30 09:00:00;;;;;;;8.73;2.70;;;6.00;99.90;;;;;;5004811;28;20596;-67
2022/12/30 09:02:26;;;;;;;9.87;2.80;;;6.00;99.90;;;;;;5004839;28;20434;-68
2022/12/30 09:04:53;;;;;;;12.57;3.07;;;6.00;99.90;;;;;;4996710;28;20221;-67
2022/12/30 09:07:20;;;;;;;9.77;3.27;;;6.10;99.90;;;;;;4986573;28;20225;-67
2022/12/30 09:09:47;;;;;;;15.57;2.90;;;6.00;99.90;;;;;;5021309;28;20234;-68
2022/12/30 09:12:14;;;;;;;7.83;2.80;;;6.00;99.90;;;;;;5014646;28;20218;-69
2022/12/30 09:14:41;;;;;;;9.90;2.43;;;6.10;99.90;;;;;;4992358;28;20824;-68
2022/12/30 09:17:09;;;;;;;11.77;3.23;;;6.10;99.90;;;;;;5016900;28;20572;-68
2022/12/30 09:19:35;;;;;;;15.13;3.73;;;6.10;99.90;;;;;;5015682;28;20222;-69
2022/12/30 09:22:03;;;;;;;8.53;3.30;;;6.10;99.90;;;;;;4973592;28;21194;-69
2022/12/30 09:24:29;;;;;;;14.33;2.60;;;6.20;99.90;;;;;;5015888;28;20224;-69
2022/12/30 09:26:56;;;;;;;8.57;2.80;;;6.20;99.90;;;;;;4999843;28;20620;-68
2022/12/30 09:29:23;;;;;;;6.60;2.90;;;6.20;99.90;;;;;;5018299;28;20208;-69
2022/12/30 09:31:50;;;;;;;13.43;2.70;;;6.30;99.90;;;;;;4989792;28;21703;-69
2022/12/30 09:34:18;;;;;;;12.70;3.07;;;6.20;99.90;;;;;;5021426;28;20226;-69
2022/12/30 09:36:44;;;;;;;15.57;3.07;;;6.30;99.90;;;;;;4994729;28;20224;-69
2022/12/30 09:39:13;;;;;;;6.67;2.30;;;6.30;99.90;;;;;;4978081;28;20317;-68
2022/12/30 09:44:43;;;;;;;11.27;3.07;;;6.30;99.90;;;;;;4998862;28;21601;-69
2022/12/30 09:47:18;;;;;;;8.90;2.80;;;6.40;99.90;;;;;;5001789;28;20259;-69
2022/12/30 09:49:50;;;;;;;9.73;2.90;;;6.40;99.90;;;;;;5024390;28;20225;-68
2022/12/30 09:52:23;;;;;;;6.33;2.27;;;6.40;99.90;;;;;;5016994;28;20209;-69
2022/12/30 09:54:54;;;;;;;9.23;1.97;;;6.40;99.90;;;;;;4973076;28;21706;-68
2022/12/30 09:57:32;;;;;;;8.80;1.87;;;6.40;99.90;;;;;;5005466;28;20232;-69
2022/12/30 10:00:03;;;;;;;7.67;2.20;;;6.50;99.90;;;;;;4965728;28;20229;-69
2022/12/30 10:02:34;;;;;;;9.63;2.90;;;6.50;99.90;;;;;;5004203;28;20225;-68
2022/12/30 10:05:03;;;;;;;13.93;2.50;;;6.50;99.90;;;;;;4998753;28;20216;-68
2022/12/30 10:07:37;;;;;;;10.80;2.30;;;6.40;99.90;;;;;;5013867;28;20232;-69
2022/12/30 10:10:10;;;;;;;6.87;2.10;;;6.50;99.90;;;;;;4967028;28;20408;-69
2022/12/30 10:12:45;;;;;;;5.03;1.73;;;6.50;99.90;;;;;;5012509;28;20202;-69
2022/12/30 10:15:23;;;;;;;9.33;2.00;;;6.50;99.90;;;;;;4978152;28;20233;-68
2022/12/30 10:18:07;;;;;;;8.80;1.87;;;6.50;99.90;;;;;;5002712;28;20221;-69
2022/12/30 10:20:48;;;;;;;15.20;2.20;;;6.60;99.90;;;;;;5008894;28;20304;-68
2022/12/30 10:23:24;;;;;;;8.20;2.03;;;6.60;99.90;;;;;;4997324;28;20229;-68
2022/12/30 10:25:58;;;;;;;8.97;2.13;;;6.70;99.90;;;;;;5002873;28;20225;-69
2022/12/30 10:28:30;;;;;;;7.63;1.80;;;6.60;99.90;;;;;;5000541;28;20239;-69
2022/12/30 10:30:58;;;;;;;7.60;2.17;;;6.60;99.90;;;;;;4997143;28;20256;-69
2022/12/30 10:33:24;;;;;;;6.43;1.80;;;6.60;99.90;;;;;;5009175;28;20205;-68
2022/12/30 10:36:04;;;;;;;10.97;2.13;;;6.70;99.90;;;;;;5005066;28;20577;-68
2022/12/30 10:38:31;;;;;;;5.97;2.20;;;6.70;99.90;;;;;;4979689;28;21267;-68
2022/12/30 10:41:07;;;;;;;5.53;2.13;;;6.70;99.90;;;;;;5001502;28;20226;-68
2022/12/30 10:43:47;;;;;;;11.60;1.77;;;6.80;99.90;;;;;;4999255;28;20228;-69
2022/12/30 10:46:29;;;;;;;10.37;2.20;;;6.80;99.90;;;;;;5004917;28;20224;-69
2022/12/30 10:49:13;;;;;;;12.73;2.27;;;6.80;99.90;;;;;;4996007;28;20286;-69
2022/12/30 10:51:42;;;;;;;6.90;1.80;;;6.80;99.90;;;;;;5000107;28;21331;-68
2022/12/30 10:54:09;;;;;;;6.73;1.60;;;6.80;99.90;;;;;;4994169;28;20225;-69
2022/12/30 10:56:39;;;;;;;4.03;1.60;;;6.80;99.90;;;;;;4986569;28;20657;-69
2022/12/30 10:59:11;;;;;;;4.37;1.63;;;6.80;99.90;;;;;;4999978;28;20217;-68
2022/12/30 11:01:39;;;;;;;6.30;1.70;;;6.90;99.90;;;;;;5004871;28;22094;-68
2022/12/30 11:04:06;;;;;;;10.60;1.87;;;6.90;99.90;;;;;;4974874;28;20232;-68
2022/12/30 11:06:34;;;;;;;12.90;2.20;;;6.90;99.90;;;;;;4993665;28;20252;-68
2022/12/30 11:09:21;;;;;;;9.10;1.87;;;6.90;99.90;;;;;;4999481;28;20583;-68
2022/12/30 11:14:43;;;;;;;9.37;2.13;;;6.90;99.90;;;;;;4994330;28;20240;-68
2022/12/30 11:17:21;;;;;;;9.20;1.63;;;6.90;99.90;;;;;;5008060;28;20251;-68
2022/12/30 11:19:51;;;;;;;7.53;1.90;;;6.90;99.90;;;;;;4973319;28;20232;-68
2022/12/30 11:22:18;;;;;;;8.57;1.87;;;7.00;99.90;;;;;;4975051;28;20201;-68
2022/12/30 11:24:57;;;;;;;6.40;1.57;;;7.00;99.90;;;;;;4968975;28;20242;-68
2022/12/30 11:27:31;;;;;;;5.57;1.63;;;7.00;99.90;;;;;;4981562;28;20543;-69
2022/12/30 11:29:58;;;;;;;2.20;0.90;;;7.10;99.90;;;;;;4982530;28;20206;-68
2022/12/30 11:32:25;;;;;;;7.80;1.70;;;7.10;99.90;;;;;;5003827;28;20991;-68
2022/12/30 11:34:52;;;;;;;5.80;1.60;;;7.10;99.90;;;;;;4988565;28;22087;-68
2022/12/30 11:37:25;;;;;;;4.00;1.63;;;7.20;99.90;;;;;;5019619;28;20212;-68
2022/12/30 11:39:53;;;;;;;6.10;1.63;;;7.20;99.90;;;;;;5011363;28;20224;-68
2022/12/30 11:42:30;;;;;;;6.97;1.90;;;7.30;99.90;;;;;;4977990;28;20214;-69
2022/12/30 11:45:17;;;;;;;2.63;1.23;;;7.20;99.90;;;;;;5007321;28;20225;-69
2022/12/30 11:47:45;;;;;;;5.57;1.77;;;7.20;99.90;;;;;;4991604;28;20232;-68
2022/12/30 11:50:17;;;;;;;5.70;1.43;;;7.30;99.90;;;;;;4992735;28;20817;-68
2022/12/30 11:52:50;;;;;;;3.23;1.40;;;7.40;99.90;;;;;;5004401;28;20236;-67
2022/12/30 11:55:24;;;;;;;3.83;1.63;;;7.40;99.90;;;;;;5011802;28;20533;-68
2022/12/30 11:57:52;;;;;;;6.80;1.60;;;7.40;99.90;;;;;;4984696;28;20726;-67
2022/12/30 12:00:34;;;;;;;8.37;1.73;;;7.40;99.90;;;;;;4997635;28;20819;-67
2022/12/30 12:03:04;;;;;;;5.93;1.37;;;7.50;99.90;;;;;;5001797;28;20197;-67
2022/12/30 12:05:39;;;;;;;3.60;1.40;;;7.50;99.90;;;;;;5007478;28;20493;-68
2022/12/30 12:08:14;;;;;;;8.83;1.60;;;7.50;99.90;;;;;;5018741;28;20243;-68
2022/12/30 12:10:48;;;;;;;5.97;1.60;;;7.50;99.90;;;;;;5015150;28;20231;-67
2022/12/30 12:13:26;;;;;;;5.00;1.63;;;7.50;99.90;;;;;;4979789;28;20721;-68
2022/12/30 12:15:57;;;;;;;3.70;1.43;;;7.40;99.90;;;;;;5008664;28;20205;-68
2022/12/30 12:18:28;;;;;;;5.20;1.20;;;7.40;99.90;;;;;;5011308;28;20729;-68
2022/12/30 12:21:04;;;;;;;4.40;1.53;;;7.40;99.90;;;;;;4989908;28;21006;-68
2022/12/30 12:23:46;;;;;;;3.47;1.50;;;7.40;99.90;;;;;;5007950;28;20217;-68
2022/12/30 12:26:20;;;;;;;7.97;1.70;;;7.40;99.90;;;;;;5004939;28;20237;-69
2022/12/30 12:28:48;;;;;;;7.60;2.00;;;7.30;99.90;;;;;;4984713;28;20221;-68
2022/12/30 12:31:37;;;;;;;5.10;1.20;;;7.30;99.90;;;;;;5010187;28;20334;-69
2022/12/30 12:34:10;;;;;;;5.73;1.40;;;7.30;99.90;;;;;;5008720;28;20802;-69
2022/12/30 12:36:47;;;;;;;4.77;1.57;;;7.30;99.90;;;;;;4989748;28;22105;-68
2022/12/30 12:39:24;;;;;;;6.67;1.23;;;7.50;99.90;;;;;;5024749;28;20808;-69
2022/12/30 12:41:59;;;;;;;6.13;2.07;;;7.30;99.90;;;;;;5025530;28;20217;-69
2022/12/30 12:45:05;;;;;;;5.40;2.03;;;7.30;99.90;;;;;;4975957;28;20213;-69
2022/12/30 12:47:44;;;;;;;5.83;1.50;;;7.30;99.90;;;;;;5009871;28;20221;-69
2022/12/30 12:50:29;;;;;;;7.37;1.70;;;7.30;99.90;;;;;;5006276;28;20565;-68
2022/12/30 12:53:07;;;;;;;3.73;1.30;;;7.30;99.90;;;;;;5010264;28;20346;-68
2022/12/30 12:55:59;;;;;;;3.93;1.27;;;7.30;99.90;;;;;;5012905;28;20787;-69
2022/12/30 12:58:38;;;;;;;4.73;1.63;;;7.30;99.90;;;;;;5008087;28;20212;-69
2022/12/30 13:01:11;;;;;;;6.93;2.23;;;7.30;99.90;;;;;;4993417;28;20311;-69
2022/12/30 13:03:53;;;;;;;7.87;1.97;;;7.30;99.90;;;;;;5014949;28;20235;-68
2022/12/30 13:06:27;;;;;;;5.63;1.93;;;7.30;99.90;;;;;;5005395;28;20598;-68
2022/12/30 13:09:17;;;;;;;4.87;1.53;;;7.30;99.90;;;;;;5012460;28;20715;-68
2022/12/30 13:11:53;;;;;;;3.97;1.30;;;7.30;99.90;;;;;;5024776;28;20190;-69
2022/12/30 13:14:29;;;;;;;7.30;2.10;;;7.40;99.90;;;;;;5005092;28;20207;-68
2022/12/30 13:16:59;;;;;;;4.07;1.70;;;7.40;99.90;;;;;;4978643;28;21295;-69
2022/12/30 13:19:31;;;;;;;5.90;1.60;;;7.30;99.90;;;;;;5015276;28;20706;-69
2022/12/30 13:22:01;;;;;;;5.10;1.57;;;7.40;99.90;;;;;;4999882;28;20212;-68
2022/12/30 13:24:33;;;;;;;6.67;1.50;;;7.40;99.90;;;;;;5008699;28;20437;-68
2022/12/30 13:27:02;;;;;;;6.27;1.47;;;7.40;99.90;;;;;;5028479;28;20727;-68
2022/12/30 13:29:34;;;;;;;2.10;1.17;;;7.40;99.90;;;;;;5026912;28;20217;-69
2022/12/30 13:32:09;;;;;;;9.27;1.57;;;7.40;99.90;;;;;;4983342;28;20214;-69
2022/12/30 13:34:41;;;;;;;2.63;1.33;;;7.40;99.90;;;;;;5010647;28;21148;-69
2022/12/30 13:37:16;;;;;;;5.40;1.63;;;7.40;99.90;;;;;;5008651;28;20210;-69
2022/12/30 13:39:49;;;;;;;4.33;1.33;;;7.40;99.90;;;;;;4968180;28;20253;-68
2022/12/30 13:42:43;;;;;;;4.33;1.27;;;7.40;99.90;;;;;;4990284;28;21182;-69
2022/12/30 13:45:24;;;;;;;5.87;1.20;;;7.40;99.90;;;;;;4992989;28;20216;-69
2022/12/30 13:48:03;;;;;;;4.97;1.50;;;7.40;99.90;;;;;;4975668;28;20229;-68
2022/12/30 13:50:33;;;;;;;4.00;1.30;;;7.40;99.90;;;;;;5003026;28;20213;-68
2022/12/30 13:53:01;;;;;;;4.13;1.50;;;7.40;99.90;;;;;;4994657;28;20229;-68
2022/12/30 13:55:31;;;;;;;6.43;1.50;;;7.40;99.90;;;;;;4993745;28;20264;-69
2022/12/30 13:58:01;;;;;;;3.77;1.30;;;7.30;99.90;;;;;;4998667;28;20228;-69
2022/12/30 14:00:33;;;;;;;3.83;1.43;;;7.30;99.90;;;;;;4992198;28;20275;-68
2022/12/30 14:03:10;;;;;;;5.40;1.37;;;7.30;99.90;;;;;;4934698;28;20202;-69
2022/12/30 14:05:58;;;;;;;4.00;1.40;;;7.30;99.90;;;;;;4976196;28;20251;-67
2022/12/30 14:08:45;;;;;;;5.60;1.83;;;7.30;99.90;;;;;;4993521;28;20602;-66
2022/12/30 14:11:14;;;;;;;5.97;1.30;;;7.30;99.90;;;;;;4991446;28;20404;-67